Time;durP1;ratioP1;P1;durP2;ratioP2;P2;SDS_P1;SDS_P2;PMS_P1;PMS_P2;Temp;Humidity;BMP_temperature;BMP_pressure;BME280_temperature;BME280_humidity;BME280_pressure;Samples;Min_cycle;Max_cycle;Signal;HPM_P1;HPM_P2
2023/06/29 00:01:56;;;;;;;;;;;;;;;18.57;57.96;98380.72;7370256;19;19929;-71
2023/06/29 00:04:25;;;;;;;;;;;;;;;18.58;58.22;98377.00;7370507;19;19933;-70
2023/06/29 00:06:53;;;;;;;;;;;;;;;18.51;58.38;98385.06;7378669;19;20594;-70
2023/06/29 00:09:21;;;;;;;;;;;;;;;18.65;57.74;98367.13;7380274;19;20390;-71
2023/06/29 00:11:48;;;;;;;;;;;;;;;18.69;57.76;98371.00;7374402;19;19923;-70
2023/06/29 00:14:14;;;;;;;;;;;;;;;18.54;58.70;98378.47;7379906;19;19978;-70
2023/06/29 00:16:41;;;;;;;;;;;;;;;18.43;58.37;98372.69;7375681;19;19947;-70
2023/06/29 00:19:08;;;;;;;;;;;;;;;18.37;58.63;98367.34;7374850;19;19926;-70
2023/06/29 00:21:34;;;;;;;;;;;;;;;18.51;57.83;98373.50;7368673;19;19932;-70
2023/06/29 00:24:02;;;;;;;;;;;;;;;18.32;58.40;98364.44;7378244;19;19919;-70
2023/06/29 00:26:30;;;;;;;;;;;;;;;18.25;58.58;98359.09;7372726;19;19931;-69
2023/06/29 00:28:57;;;;;;;;;;;;;;;18.42;57.94;98357.63;7372843;19;19933;-70
2023/06/29 00:31:24;;;;;;;;;;;;;;;18.45;58.07;98363.63;7375351;19;19922;-69
2023/06/29 00:33:51;;;;;;;;;;;;;;;18.51;57.70;98354.75;7375544;19;19924;-70
2023/06/29 00:36:18;;;;;;;;;;;;;;;18.49;57.90;98365.69;7370352;19;19974;-70
2023/06/29 00:38:45;;;;;;;;;;;;;;;18.46;58.06;98354.53;7367183;19;19926;-70
2023/06/29 00:41:11;;;;;;;;;;;;;;;18.54;58.65;98347.13;7375553;19;19915;-70
2023/06/29 00:43:38;;;;;;;;;;;;;;;18.54;58.12;98351.69;7370630;19;19929;-71
2023/06/29 00:46:07;;;;;;;;;;;;;;;18.56;58.38;98347.75;7368143;19;19915;-70
2023/06/29 00:48:37;;;;;;;;;;;;;;;18.48;57.73;98358.66;7375742;19;19922;-70
2023/06/29 00:51:04;;;;;;;;;;;;;;;18.24;58.51;98354.75;7375763;19;20006;-70
2023/06/29 00:53:31;;;;;;;;;;;;;;;18.16;58.48;98355.78;7369755;19;20314;-69
2023/06/29 00:55:58;;;;;;;;;;;;;;;18.05;59.04;98350.22;7368000;19;20600;-69
2023/06/29 00:58:25;;;;;;;;;;;;;;;17.69;60.77;98348.66;7375797;19;20278;-69
2023/06/29 01:00:51;;;;;;;;;;;;;;;17.71;60.92;98355.47;7371118;19;19974;-69
2023/06/29 01:03:18;;;;;;;;;;;;;;;17.61;60.27;98351.53;7375331;19;19951;-69
2023/06/29 01:05:46;;;;;;;;;;;;;;;17.80;60.22;98342.78;7366999;19;19963;-69
2023/06/29 01:08:19;;;;;;;;;;;;;;;17.77;60.16;98343.97;7374071;19;19929;-70
2023/06/29 01:10:46;;;;;;;;;;;;;;;17.62;60.58;98332.63;7366758;19;19922;-69
2023/06/29 01:13:13;;;;;;;;;;;;;;;17.71;60.27;98339.41;7371873;19;19929;-70
2023/06/29 01:15:40;;;;;;;;;;;;;;;17.75;60.57;98343.34;7371677;19;20575;-69
2023/06/29 01:18:07;;;;;;;;;;;;;;;17.86;60.29;98339.28;7376479;19;20376;-69
2023/06/29 01:20:34;;;;;;;;;;;;;;;17.80;60.48;98331.22;7373843;19;19930;-69
2023/06/29 01:23:05;;;;;;;;;;;;;;;17.82;60.45;98330.00;7374570;19;20367;-70
2023/06/29 01:25:32;;;;;;;;;;;;;;;17.77;60.50;98332.41;7370957;19;20131;-69
2023/06/29 01:27:59;;;;;;;;;;;;;;;17.72;60.65;98324.19;7368957;19;19930;-69
2023/06/29 01:30:28;;;;;;;;;;;;;;;17.84;59.83;98329.81;7374230;19;19919;-69
2023/06/29 01:32:55;;;;;;;;;;;;;;;17.52;61.33;98324.97;7378963;19;19923;-69
2023/06/29 01:35:22;;;;;;;;;;;;;;;17.55;61.14;98326.41;7377266;19;20021;-69
2023/06/29 01:37:58;;;;;;;;;;;;;;;17.57;60.72;98320.88;7368794;19;19930;-69
2023/06/29 01:40:26;;;;;;;;;;;;;;;17.63;60.38;98317.38;7374446;19;19939;-69
2023/06/29 01:42:53;;;;;;;;;;;;;;;17.64;60.49;98319.88;7364497;19;19930;-69
2023/06/29 01:45:20;;;;;;;;;;;;;;;17.55;61.60;98316.53;7365742;19;20336;-70
2023/06/29 01:47:46;;;;;;;;;;;;;;;17.53;61.46;98320.44;7367413;19;19922;-69
2023/06/29 01:50:14;;;;;;;;;;;;;;;17.48;61.86;98323.72;7375516;19;19919;-70
2023/06/29 01:52:41;;;;;;;;;;;;;;;17.51;61.20;98319.84;7373277;19;19973;-70
2023/06/29 01:55:09;;;;;;;;;;;;;;;17.45;61.70;98321.44;7369458;19;19934;-70
2023/06/29 01:57:35;;;;;;;;;;;;;;;17.55;60.75;98323.75;7364629;19;19919;-70
2023/06/29 02:00:03;;;;;;;;;;;;;;;17.45;60.69;98320.63;7367193;19;19915;-69
2023/06/29 02:02:39;;;;;;;;;;;;;;;17.28;61.66;98317.50;7365947;19;19937;-69
2023/06/29 02:05:06;;;;;;;;;;;;;;;16.79;63.00;98313.94;7372303;19;19922;-69
2023/06/29 02:07:33;;;;;;;;;;;;;;;17.01;62.81;98313.84;7370682;19;19990;-69
2023/06/29 02:09:59;;;;;;;;;;;;;;;17.13;62.11;98311.47;7376751;19;19914;-69
2023/06/29 02:12:26;;;;;;;;;;;;;;;17.13;61.78;98314.13;7374974;19;19934;-69
2023/06/29 02:14:53;;;;;;;;;;;;;;;17.13;61.79;98314.94;7364399;19;19922;-69
2023/06/29 02:17:19;;;;;;;;;;;;;;;16.95;62.87;98318.16;7370482;19;19935;-69
2023/06/29 02:19:46;;;;;;;;;;;;;;;16.96;62.87;98308.31;7368033;19;19926;-69
2023/06/29 02:22:13;;;;;;;;;;;;;;;16.88;62.86;98314.63;7366133;19;19926;-70
2023/06/29 02:24:40;;;;;;;;;;;;;;;16.97;62.49;98309.94;7372119;19;19946;-70
2023/06/29 02:27:06;;;;;;;;;;;;;;;16.88;62.95;98304.78;7373523;19;19941;-69
2023/06/29 02:29:33;;;;;;;;;;;;;;;16.82;62.73;98307.41;7369587;19;19923;-70
2023/06/29 02:32:00;;;;;;;;;;;;;;;16.85;63.29;98298.97;7376797;19;20556;-70
2023/06/29 02:34:27;;;;;;;;;;;;;;;16.94;62.31;98297.00;7371695;19;19942;-70
2023/06/29 02:36:53;;;;;;;;;;;;;;;17.04;62.40;98300.94;7362103;19;19926;-69
2023/06/29 02:39:23;;;;;;;;;;;;;;;16.97;63.06;98294.72;7371163;19;19961;-70
2023/06/29 02:41:50;;;;;;;;;;;;;;;16.96;63.19;98295.75;7368344;19;19923;-69
2023/06/29 02:44:17;;;;;;;;;;;;;;;16.97;62.92;98291.25;7358790;19;19942;-70
2023/06/29 02:46:44;;;;;;;;;;;;;;;17.03;62.53;98290.44;7361685;19;19929;-70
2023/06/29 02:49:11;;;;;;;;;;;;;;;17.07;61.90;98289.03;7371542;19;19922;-70
2023/06/29 02:51:38;;;;;;;;;;;;;;;16.92;62.90;98285.66;7362583;19;19951;-70
2023/06/29 02:54:07;;;;;;;;;;;;;;;16.96;62.16;98282.41;7367205;19;20366;-69
2023/06/29 02:56:34;;;;;;;;;;;;;;;16.94;61.91;98289.78;7364430;19;20011;-70
2023/06/29 02:59:03;;;;;;;;;;;;;;;16.62;63.18;98288.56;7369891;19;19922;-70
2023/06/29 03:01:29;;;;;;;;;;;;;;;16.61;63.69;98293.09;7368388;19;19936;-69
2023/06/29 03:03:57;;;;;;;;;;;;;;;16.63;63.17;98292.88;7363885;19;20277;-69
2023/06/29 03:06:25;;;;;;;;;;;;;;;16.79;62.52;98292.59;7368573;19;19927;-69
2023/06/29 03:08:52;;;;;;;;;;;;;;;16.78;62.89;98290.94;7367293;19;20385;-70
2023/06/29 03:11:19;;;;;;;;;;;;;;;16.75;62.47;98287.81;7367111;19;19915;-69
2023/06/29 03:13:46;;;;;;;;;;;;;;;16.50;63.64;98293.63;7367813;19;19929;-70
2023/06/29 03:16:13;;;;;;;;;;;;;;;16.49;64.26;98288.47;7367387;19;20025;-70
2023/06/29 03:18:39;;;;;;;;;;;;;;;16.49;63.58;98283.16;7369808;19;19986;-70
2023/06/29 03:21:06;;;;;;;;;;;;;;;16.39;64.45;98286.16;7372531;19;19922;-70
2023/06/29 03:23:43;;;;;;;;;;;;;;;16.16;65.23;98278.38;7369781;19;19927;-70
2023/06/29 03:26:10;;;;;;;;;;;;;;;16.42;64.00;98280.41;7366320;19;20538;-70
2023/06/29 03:28:36;;;;;;;;;;;;;;;16.45;63.83;98286.19;7364445;19;19919;-69
2023/06/29 03:31:03;;;;;;;;;;;;;;;16.29;64.09;98283.81;7369619;19;19919;-69
2023/06/29 03:33:30;;;;;;;;;;;;;;;16.38;64.04;98290.69;7372989;19;19941;-69
2023/06/29 03:35:57;;;;;;;;;;;;;;;16.45;64.00;98290.69;7367098;19;20306;-69
2023/06/29 03:38:24;;;;;;;;;;;;;;;16.33;64.21;98276.25;7370074;19;20025;-70
2023/06/29 03:40:50;;;;;;;;;;;;;;;16.30;64.65;98289.97;7367082;19;19923;-69
2023/06/29 03:43:17;;;;;;;;;;;;;;;16.46;64.25;98289.69;7366296;19;19918;-69
2023/06/29 03:45:44;;;;;;;;;;;;;;;16.46;64.17;98289.69;7364498;19;20471;-68
2023/06/29 03:48:11;;;;;;;;;;;;;;;16.52;64.20;98288.91;7368043;19;19914;-69
2023/06/29 03:50:38;;;;;;;;;;;;;;;16.48;64.33;98292.97;7370149;19;19925;-69
2023/06/29 03:53:05;;;;;;;;;;;;;;;16.40;64.79;98290.47;7368041;19;19927;-71
2023/06/29 03:55:31;;;;;;;;;;;;;;;16.32;65.29;98288.75;7370734;19;19923;-69
2023/06/29 03:57:59;;;;;;;;;;;;;;;16.39;65.28;98286.97;7362806;19;19929;-68
2023/06/29 04:00:26;;;;;;;;;;;;;;;16.54;64.49;98288.72;7368224;19;20438;-69
2023/06/29 04:02:53;;;;;;;;;;;;;;;16.73;63.35;98281.84;7363662;19;20503;-68
2023/06/29 04:05:19;;;;;;;;;;;;;;;16.81;63.44;98287.06;7363461;19;19922;-71
2023/06/29 04:07:46;;;;;;;;;;;;;;;16.92;63.42;98280.31;7365482;19;19926;-69
2023/06/29 04:10:13;;;;;;;;;;;;;;;16.96;62.61;98278.91;7369877;19;19917;-69
2023/06/29 04:12:39;;;;;;;;;;;;;;;16.98;62.94;98276.84;7369657;19;19926;-69
2023/06/29 04:15:06;;;;;;;;;;;;;;;16.96;62.44;98273.56;7372555;19;19933;-69
2023/06/29 04:17:33;;;;;;;;;;;;;;;16.88;62.98;98277.22;7374603;19;19926;-70
2023/06/29 04:20:00;;;;;;;;;;;;;;;16.85;62.90;98273.09;7370181;19;19914;-68
2023/06/29 04:22:27;;;;;;;;;;;;;;;16.82;63.11;98273.47;7375903;19;19990;-71
2023/06/29 04:24:54;;;;;;;;;;;;;;;16.89;63.49;98277.00;7374782;19;19930;-69
2023/06/29 04:27:20;;;;;;;;;;;;;;;17.00;62.46;98272.94;7376028;19;19925;-69
2023/06/29 04:29:47;;;;;;;;;;;;;;;17.16;62.87;98274.44;7376708;19;19926;-71
2023/06/29 04:32:14;;;;;;;;;;;;;;;17.21;62.52;98265.84;7373590;19;19929;-71
2023/06/29 04:34:40;;;;;;;;;;;;;;;17.36;61.83;98260.34;7369342;19;19953;-70
2023/06/29 04:37:07;;;;;;;;;;;;;;;17.46;61.48;98269.63;7374215;19;19925;-71
2023/06/29 04:39:34;;;;;;;;;;;;;;;17.60;61.06;98269.63;7376477;19;19918;-71
2023/06/29 04:42:02;;;;;;;;;;;;;;;17.49;61.01;98269.22;7372578;19;19918;-70
2023/06/29 04:44:32;;;;;;;;;;;;;;;17.47;61.79;98263.22;7373098;19;20282;-71
2023/06/29 04:47:00;;;;;;;;;;;;;;;17.62;61.51;98265.72;7370617;19;19915;-69
2023/06/29 04:49:31;;;;;;;;;;;;;;;17.70;60.80;98270.06;7371400;19;19915;-70
2023/06/29 04:51:59;;;;;;;;;;;;;;;17.78;60.49;98272.53;7368589;19;19917;-71
2023/06/29 04:54:27;;;;;;;;;;;;;;;17.93;60.00;98278.56;7368403;19;19922;-71
2023/06/29 04:56:54;;;;;;;;;;;;;;;17.81;59.88;98272.16;7367354;19;20344;-71
2023/06/29 04:59:22;;;;;;;;;;;;;;;17.69;60.01;98261.22;7370475;19;19919;-71
2023/06/29 05:01:48;;;;;;;;;;;;;;;17.67;60.35;98270.47;7371166;19;19919;-71
2023/06/29 05:04:15;;;;;;;;;;;;;;;17.65;61.10;98259.97;7372197;19;19988;-71
2023/06/29 05:06:42;;;;;;;;;;;;;;;17.87;60.84;98265.16;7369384;19;19921;-71
2023/06/29 05:09:10;;;;;;;;;;;;;;;17.99;59.59;98260.84;7367403;19;19926;-71
2023/06/29 05:11:36;;;;;;;;;;;;;;;18.07;59.78;98257.16;7376192;19;19919;-71
2023/06/29 05:14:03;;;;;;;;;;;;;;;18.26;58.81;98258.97;7373732;19;19915;-71
2023/06/29 05:16:30;;;;;;;;;;;;;;;18.24;58.74;98265.56;7370544;19;19945;-71
2023/06/29 05:18:57;;;;;;;;;;;;;;;18.18;59.05;98268.03;7372143;19;19946;-71
2023/06/29 05:21:23;;;;;;;;;;;;;;;18.14;59.31;98261.47;7369987;19;19926;-71
2023/06/29 05:23:50;;;;;;;;;;;;;;;18.09;59.18;98268.44;7368520;19;19929;-71
2023/06/29 05:26:17;;;;;;;;;;;;;;;18.08;59.30;98266.81;7366798;19;19930;-71
2023/06/29 05:28:44;;;;;;;;;;;;;;;18.45;58.42;98261.84;7371989;19;19929;-70
2023/06/29 05:31:29;;;;;;;;;;;;;;;18.58;57.63;98259.13;7374422;19;19978;-71
2023/06/29 05:33:56;;;;;;;;;;;;;;;18.73;57.17;98257.03;7372837;19;19922;-69
2023/06/29 05:36:29;;;;;;;;;;;;;;;18.95;56.41;98262.94;7368658;19;20965;-69
2023/06/29 05:38:56;;;;;;;;;;;;;;;19.05;55.85;98255.28;7369075;19;20913;-71
2023/06/29 05:41:23;;;;;;;;;;;;;;;19.16;56.07;98259.16;7371222;19;19921;-71
2023/06/29 05:43:49;;;;;;;;;;;;;;;19.24;56.11;98255.41;7365321;19;20464;-69
2023/06/29 05:46:16;;;;;;;;;;;;;;;19.32;56.01;98257.00;7369415;19;19951;-69
2023/06/29 05:48:43;;;;;;;;;;;;;;;19.44;55.91;98258.81;7371775;19;19919;-70
2023/06/29 05:51:09;;;;;;;;;;;;;;;19.51;55.25;98256.09;7374153;19;19983;-71
2023/06/29 05:53:36;;;;;;;;;;;;;;;19.71;55.46;98258.66;7376581;19;20333;-69
2023/06/29 05:56:03;;;;;;;;;;;;;;;19.77;54.47;98251.59;7364355;19;20394;-69
2023/06/29 05:58:29;;;;;;;;;;;;;;;19.83;54.77;98246.19;7371447;19;19918;-69
2023/06/29 06:00:56;;;;;;;;;;;;;;;19.90;54.58;98251.50;7373847;19;19930;-71
2023/06/29 06:03:23;;;;;;;;;;;;;;;20.05;54.13;98246.63;7370320;19;19960;-69
2023/06/29 06:05:50;;;;;;;;;;;;;;;20.12;54.68;98250.06;7369535;19;19926;-69
2023/06/29 06:08:16;;;;;;;;;;;;;;;20.27;54.83;98246.22;7372036;19;19927;-69
2023/06/29 06:10:43;;;;;;;;;;;;;;;20.50;52.75;98250.97;7370295;19;19923;-69
2023/06/29 06:13:10;;;;;;;;;;;;;;;20.56;52.98;98248.25;7367076;19;19915;-69
2023/06/29 06:15:37;;;;;;;;;;;;;;;20.55;51.98;98251.16;7367315;19;19921;-69
2023/06/29 06:18:04;;;;;;;;;;;;;;;20.73;52.95;98253.03;7368671;19;19935;-69
2023/06/29 06:20:30;;;;;;;;;;;;;;;20.94;52.84;98249.06;7374098;19;19925;-69
2023/06/29 06:22:57;;;;;;;;;;;;;;;21.13;52.80;98247.97;7367287;19;19915;-71
2023/06/29 06:25:24;;;;;;;;;;;;;;;21.28;51.68;98250.28;7369959;19;19998;-69
2023/06/29 06:27:51;;;;;;;;;;;;;;;21.45;52.07;98242.41;7367062;19;21827;-69
2023/06/29 06:30:18;;;;;;;;;;;;;;;21.56;49.60;98252.38;7369301;19;19923;-69
2023/06/29 06:32:44;;;;;;;;;;;;;;;21.55;49.30;98245.38;7369278;19;19923;-69
2023/06/29 06:35:12;;;;;;;;;;;;;;;21.85;49.87;98248.03;7367566;19;19966;-69
2023/06/29 06:37:38;;;;;;;;;;;;;;;21.90;47.63;98250.81;7372370;19;19922;-69
2023/06/29 06:40:15;;;;;;;;;;;;;;;22.02;48.43;98256.22;7369649;19;19922;-69
2023/06/29 06:42:42;;;;;;;;;;;;;;;22.12;47.61;98243.00;7365836;19;19919;-69
2023/06/29 06:45:09;;;;;;;;;;;;;;;22.21;48.53;98240.81;7367328;19;19918;-69
2023/06/29 06:47:36;;;;;;;;;;;;;;;22.30;48.39;98247.50;7372061;19;19943;-69
2023/06/29 06:50:03;;;;;;;;;;;;;;;22.39;47.33;98239.88;7365583;19;19931;-69
2023/06/29 06:52:30;;;;;;;;;;;;;;;22.53;47.16;98245.84;7370865;19;20366;-69
2023/06/29 06:54:57;;;;;;;;;;;;;;;22.64;47.97;98242.28;7368942;19;20329;-69
2023/06/29 06:57:23;;;;;;;;;;;;;;;22.61;47.56;98236.56;7369653;19;19918;-69
2023/06/29 06:59:50;;;;;;;;;;;;;;;22.69;46.79;98239.72;7366739;19;19929;-70
2023/06/29 07:02:17;;;;;;;;;;;;;;;22.83;47.10;98239.44;7368573;19;20245;-69
2023/06/29 07:04:44;;;;;;;;;;;;;;;22.70;45.71;98235.97;7366237;19;19922;-69
2023/06/29 07:07:10;;;;;;;;;;;;;;;22.75;46.09;98225.28;7366514;19;19929;-69
2023/06/29 07:09:37;;;;;;;;;;;;;;;22.79;47.15;98229.13;7372251;19;20660;-69
2023/06/29 07:12:05;;;;;;;;;;;;;;;22.95;46.96;98224.88;7369147;19;20265;-69
2023/06/29 07:14:32;;;;;;;;;;;;;;;22.97;45.75;98220.09;7371891;19;19919;-69
2023/06/29 07:16:58;;;;;;;;;;;;;;;23.23;45.24;98213.31;7368310;19;20316;-69
2023/06/29 07:19:26;;;;;;;;;;;;;;;23.42;44.30;98213.94;7371199;19;20855;-69
2023/06/29 07:21:55;;;;;;;;;;;;;;;23.53;44.73;98209.53;7366483;19;19934;-69
2023/06/29 07:24:25;;;;;;;;;;;;;;;23.82;44.20;98209.50;7366082;19;19918;-69
2023/06/29 07:26:52;;;;;;;;;;;;;;;23.99;45.12;98213.03;7368281;19;20243;-69
2023/06/29 07:29:19;;;;;;;;;;;;;;;24.38;41.63;98207.66;7372365;19;20317;-69
2023/06/29 07:31:46;;;;;;;;;;;;;;;24.82;41.19;98196.06;7367979;19;20103;-69
2023/06/29 07:34:12;;;;;;;;;;;;;;;25.19;40.39;98199.75;7369658;19;20416;-69
2023/06/29 07:36:39;;;;;;;;;;;;;;;25.40;39.92;98199.97;7370858;19;19983;-69
2023/06/29 07:39:06;;;;;;;;;;;;;;;25.56;40.00;98203.63;7365586;19;19918;-69
2023/06/29 07:41:33;;;;;;;;;;;;;;;25.88;38.09;98202.84;7371787;19;19926;-69
2023/06/29 07:44:00;;;;;;;;;;;;;;;25.55;40.68;98196.59;7368015;19;19939;-69
2023/06/29 07:46:27;;;;;;;;;;;;;;;25.35;41.08;98194.50;7368986;19;19951;-69
2023/06/29 07:48:59;;;;;;;;;;;;;;;25.25;40.85;98189.81;7376663;19;19998;-69
2023/06/29 07:51:31;;;;;;;;;;;;;;;25.35;40.26;98195.31;7375294;19;20359;-69
2023/06/29 07:54:00;;;;;;;;;;;;;;;25.42;39.78;98194.31;7375902;19;19922;-69
2023/06/29 07:56:28;;;;;;;;;;;;;;;25.37;40.45;98187.75;7373510;19;19922;-69
2023/06/29 07:59:14;;;;;;;;;;;;;;;25.48;39.72;98185.16;7379138;19;19935;-69
2023/06/29 08:01:41;;;;;;;;;;;;;;;25.57;39.56;98186.31;7379437;19;19918;-69
2023/06/29 08:04:08;;;;;;;;;;;;;;;25.72;39.29;98183.72;7375905;19;19919;-69
2023/06/29 08:06:41;;;;;;;;;;;;;;;26.12;39.29;98177.03;7373893;19;19934;-69
2023/06/29 08:09:16;;;;;;;;;;;;;;;26.66;37.76;98167.81;7375231;19;19915;-69
2023/06/29 08:11:43;;;;;;;;;;;;;;;26.77;38.43;98182.25;7374507;19;19990;-69
2023/06/29 08:14:10;;;;;;;;;;;;;;;26.53;37.71;98176.44;7375529;19;20013;-69
2023/06/29 08:16:36;;;;;;;;;;;;;;;26.68;37.79;98180.03;7376325;19;19922;-69
2023/06/29 08:19:03;;;;;;;;;;;;;;;26.54;37.94;98172.66;7377860;19;19926;-69
2023/06/29 08:21:30;;;;;;;;;;;;;;;26.69;38.25;98168.09;7377615;19;19910;-69
2023/06/29 08:23:57;;;;;;;;;;;;;;;26.81;36.40;98170.59;7375312;19;20596;-69
2023/06/29 08:26:24;;;;;;;;;;;;;;;27.10;36.12;98168.25;7376326;19;19923;-68
2023/06/29 08:28:51;;;;;;;;;;;;;;;26.97;36.85;98176.09;7372412;19;19986;-68
2023/06/29 08:31:19;;;;;;;;;;;;;;;26.73;37.90;98170.31;7376984;19;19934;-68
2023/06/29 08:33:46;;;;;;;;;;;;;;;27.14;36.88;98177.47;7378162;19;20273;-68
2023/06/29 08:36:13;;;;;;;;;;;;;;;27.12;35.88;98168.78;7376005;19;19919;-68
2023/06/29 08:38:39;;;;;;;;;;;;;;;27.46;37.63;98160.19;7374276;19;19921;-69
2023/06/29 08:41:06;;;;;;;;;;;;;;;27.68;34.73;98159.91;7374057;19;19923;-69
2023/06/29 08:43:33;;;;;;;;;;;;;;;27.56;35.54;98164.78;7374344;19;20336;-69
2023/06/29 08:46:01;;;;;;;;;;;;;;;27.34;36.29;98157.72;7369277;19;19923;-69
2023/06/29 08:48:28;;;;;;;;;;;;;;;27.38;35.66;98165.31;7373630;19;19919;-69
2023/06/29 08:50:56;;;;;;;;;;;;;;;27.29;36.76;98163.13;7371260;19;19981;-70
2023/06/29 08:53:23;;;;;;;;;;;;;;;27.35;36.48;98144.94;7373099;19;20340;-69
2023/06/29 08:55:53;;;;;;;;;;;;;;;27.17;36.01;98150.88;7369099;19;20059;-70
2023/06/29 08:58:21;;;;;;;;;;;;;;;27.35;34.89;98148.47;7374032;19;19919;-70
2023/06/29 09:00:47;;;;;;;;;;;;;;;27.21;36.70;98152.81;7372440;19;19922;-69
2023/06/29 09:03:14;;;;;;;;;;;;;;;27.39;35.15;98146.03;7363296;19;19915;-70
2023/06/29 09:05:45;;;;;;;;;;;;;;;27.35;35.06;98147.66;7370411;19;19927;-70
2023/06/29 09:08:12;;;;;;;;;;;;;;;27.49;35.31;98145.22;7373449;19;19921;-70
2023/06/29 09:10:42;;;;;;;;;;;;;;;27.98;33.70;98131.88;7371154;19;20987;-70
2023/06/29 09:13:09;;;;;;;;;;;;;;;28.42;32.12;98136.69;7374217;19;19923;-71
2023/06/29 09:15:37;;;;;;;;;;;;;;;28.62;30.99;98127.66;7373980;19;20583;-70
2023/06/29 09:18:05;;;;;;;;;;;;;;;28.72;31.72;98128.69;7369570;19;19915;-70
2023/06/29 09:20:35;;;;;;;;;;;;;;;28.66;31.92;98130.63;7374353;19;19975;-70
2023/06/29 09:23:04;;;;;;;;;;;;;;;28.65;30.90;98135.25;7371156;19;19940;-70
2023/06/29 09:25:32;;;;;;;;;;;;;;;28.54;32.86;98130.13;7372121;19;19939;-69
2023/06/29 09:28:02;;;;;;;;;;;;;;;28.70;33.34;98136.31;7369865;19;19926;-69
2023/06/29 09:30:29;;;;;;;;;;;;;;;28.80;31.41;98128.09;7373976;19;19923;-70
2023/06/29 09:32:56;;;;;;;;;;;;;;;28.87;30.24;98118.53;7372402;19;20641;-70
2023/06/29 09:35:23;;;;;;;;;;;;;;;28.77;31.23;98126.75;7373818;19;19960;-70
2023/06/29 09:37:50;;;;;;;;;;;;;;;28.47;30.75;98126.91;7367505;19;19919;-69
2023/06/29 09:40:17;;;;;;;;;;;;;;;28.63;29.75;98133.91;7377458;19;20058;-70
2023/06/29 09:42:44;;;;;;;;;;;;;;;28.87;30.06;98123.97;7373972;19;20626;-70
2023/06/29 09:45:12;;;;;;;;;;;;;;;29.12;31.27;98127.66;7367136;19;20319;-70
2023/06/29 09:47:41;;;;;;;;;;;;;;;29.08;30.47;98126.59;7368773;19;19926;-70
2023/06/29 09:50:17;;;;;;;;;;;;;;;28.88;30.73;98117.44;7370891;19;19922;-70
2023/06/29 09:52:47;;;;;;;;;;;;;;;28.83;30.69;98122.91;7372703;19;19911;-70
2023/06/29 09:55:15;;;;;;;;;;;;;;;28.97;30.77;98122.28;7374985;19;19919;-70
2023/06/29 09:57:43;;;;;;;;;;;;;;;29.31;29.62;98119.66;7372716;19;19942;-70
2023/06/29 10:00:11;;;;;;;;;;;;;;;29.74;30.26;98117.94;7372008;19;19918;-69
2023/06/29 10:02:41;;;;;;;;;;;;;;;30.32;29.48;98111.63;7373653;19;19918;-70
2023/06/29 10:05:09;;;;;;;;;;;;;;;29.93;28.38;98115.28;7366341;19;19918;-70
2023/06/29 10:07:36;;;;;;;;;;;;;;;30.21;28.34;98107.38;7370824;19;19911;-70
2023/06/29 10:10:05;;;;;;;;;;;;;;;30.35;29.79;98104.78;7367761;19;19923;-70
2023/06/29 10:12:32;;;;;;;;;;;;;;;30.49;29.31;98093.94;7372723;19;20395;-70
2023/06/29 10:15:08;;;;;;;;;;;;;;;31.04;28.09;98100.59;7369149;19;19926;-70
2023/06/29 10:17:46;;;;;;;;;;;;;;;30.81;27.40;98101.50;7372268;19;20667;-70
2023/06/29 10:20:13;;;;;;;;;;;;;;;30.31;27.61;98098.28;7371245;19;20483;-70
2023/06/29 10:22:40;;;;;;;;;;;;;;;30.10;29.11;98087.56;7370642;19;19930;-70
2023/06/29 10:25:08;;;;;;;;;;;;;;;29.91;30.73;98090.25;7367233;19;19926;-69
2023/06/29 10:27:34;;;;;;;;;;;;;;;29.50;29.30;98090.59;7367742;19;19923;-70
2023/06/29 10:30:02;;;;;;;;;;;;;;;29.41;29.98;98091.47;7371436;19;20337;-70
2023/06/29 10:32:29;;;;;;;;;;;;;;;29.29;30.27;98086.41;7373836;19;19940;-69
2023/06/29 10:35:14;;;;;;;;;;;;;;;28.75;30.81;98092.72;7369495;19;19918;-70
2023/06/29 10:37:41;;;;;;;;;;;;;;;28.43;31.26;98089.34;7366740;19;19934;-70
2023/06/29 10:40:15;;;;;;;;;;;;;;;28.24;31.37;98091.03;7366080;19;20401;-70
2023/06/29 10:42:42;;;;;;;;;;;;;;;28.27;32.34;98087.75;7371745;19;19922;-70
2023/06/29 10:45:08;;;;;;;;;;;;;;;28.42;32.25;98073.28;7365982;19;20777;-69
2023/06/29 10:47:39;;;;;;;;;;;;;;;28.51;31.71;98076.25;7371262;19;20525;-69
2023/06/29 10:50:09;;;;;;;;;;;;;;;28.56;30.80;98071.59;7370268;19;19919;-69
2023/06/29 10:52:36;;;;;;;;;;;;;;;28.65;33.14;98075.38;7373440;19;19922;-69
2023/06/29 10:55:15;;;;;;;;;;;;;;;28.81;30.06;98072.56;7364755;19;19918;-70
2023/06/29 10:57:46;;;;;;;;;;;;;;;28.87;31.60;98069.50;7369401;19;19923;-70
2023/06/29 11:00:13;;;;;;;;;;;;;;;29.15;31.21;98071.78;7365883;19;19937;-69
2023/06/29 11:02:42;;;;;;;;;;;;;;;29.16;30.49;98063.34;7368403;19;19923;-70
2023/06/29 11:05:14;;;;;;;;;;;;;;;29.22;29.17;98062.19;7367415;19;19923;-70
2023/06/29 11:07:41;;;;;;;;;;;;;;;29.43;29.87;98060.13;7369916;19;19929;-70
2023/06/29 11:10:09;;;;;;;;;;;;;;;29.63;29.20;98059.13;7368719;19;19922;-70
2023/06/29 11:12:36;;;;;;;;;;;;;;;29.60;30.40;98056.19;7365188;19;19914;-69
2023/06/29 11:15:05;;;;;;;;;;;;;;;29.53;29.98;98056.50;7366207;19;19929;-70
2023/06/29 11:17:47;;;;;;;;;;;;;;;29.46;30.42;98050.56;7367543;19;19918;-70
2023/06/29 11:20:15;;;;;;;;;;;;;;;29.65;30.05;98054.25;7368010;19;19957;-70
2023/06/29 11:22:42;;;;;;;;;;;;;;;29.77;28.56;98051.09;7368568;19;20265;-70
2023/06/29 11:25:10;;;;;;;;;;;;;;;29.81;30.71;98049.44;7366641;19;19958;-70
2023/06/29 11:27:37;;;;;;;;;;;;;;;29.82;30.06;98044.78;7370161;19;19925;-69
2023/06/29 11:30:06;;;;;;;;;;;;;;;29.95;30.46;98041.38;7367027;19;19919;-70
2023/06/29 11:32:42;;;;;;;;;;;;;;;29.81;30.06;98035.81;7371137;19;20012;-70
2023/06/29 11:35:10;;;;;;;;;;;;;;;29.86;29.50;98037.63;7363993;19;19990;-70
2023/06/29 11:37:40;;;;;;;;;;;;;;;29.91;30.07;98034.84;7372085;19;19918;-69
2023/06/29 11:40:16;;;;;;;;;;;;;;;29.95;30.68;98036.72;7369429;19;19922;-71
2023/06/29 11:42:43;;;;;;;;;;;;;;;29.82;29.60;98022.97;7370146;19;20337;-70
2023/06/29 11:45:10;;;;;;;;;;;;;;;29.67;29.52;98032.13;7366166;19;19991;-71
2023/06/29 11:47:36;;;;;;;;;;;;;;;29.72;29.91;98027.44;7370406;19;19960;-71
2023/06/29 11:50:04;;;;;;;;;;;;;;;29.59;30.25;98028.06;7363544;19;19921;-71
2023/06/29 11:52:32;;;;;;;;;;;;;;;29.64;30.19;98019.88;7369883;19;19919;-69
2023/06/29 11:54:59;;;;;;;;;;;;;;;29.65;30.83;98021.53;7365985;19;19919;-68
2023/06/29 11:57:26;;;;;;;;;;;;;;;29.73;30.00;98015.44;7370116;19;19959;-69
2023/06/29 11:59:52;;;;;;;;;;;;;;;29.73;29.92;98014.63;7367535;19;19919;-69
2023/06/29 12:02:19;;;;;;;;;;;;;;;29.68;28.55;98017.41;7369031;19;20355;-70
2023/06/29 12:05:13;;;;;;;;;;;;;;;29.61;31.07;98006.00;7369631;19;20297;-70
2023/06/29 12:07:41;;;;;;;;;;;;;;;29.93;28.62;98006.19;7367827;19;19931;-69
2023/06/29 12:10:21;;;;;;;;;;;;;;;30.02;28.88;98000.09;7361810;19;19986;-69
2023/06/29 12:12:59;;;;;;;;;;;;;;;29.94;29.58;97988.75;7367954;19;19918;-69
2023/06/29 12:15:26;;;;;;;;;;;;;;;30.05;28.48;98002.25;7365045;19;19927;-68
2023/06/29 12:17:58;;;;;;;;;;;;;;;30.16;28.63;97990.91;7363801;19;19942;-69
2023/06/29 12:20:27;;;;;;;;;;;;;;;30.37;28.08;97996.13;7363986;19;20480;-69
2023/06/29 12:22:54;;;;;;;;;;;;;;;30.71;29.00;97992.38;7361173;19;20010;-71
2023/06/29 12:25:21;;;;;;;;;;;;;;;30.88;29.00;97991.84;7362242;19;19919;-68
2023/06/29 12:27:49;;;;;;;;;;;;;;;30.72;27.49;97992.06;7366417;19;19961;-69
2023/06/29 12:30:17;;;;;;;;;;;;;;;30.37;28.63;97987.94;7364018;19;19922;-69
2023/06/29 12:32:44;;;;;;;;;;;;;;;30.73;28.70;97980.03;7367280;19;19944;-69
2023/06/29 12:35:14;;;;;;;;;;;;;;;30.89;27.98;97983.38;7372748;19;19925;-69
2023/06/29 12:37:41;;;;;;;;;;;;;;;30.59;28.31;97973.69;7375744;19;20341;-71
2023/06/29 12:40:08;;;;;;;;;;;;;;;30.34;29.50;97972.16;7371964;19;19919;-69
2023/06/29 12:42:36;;;;;;;;;;;;;;;30.48;29.63;97978.50;7375571;19;19930;-69
2023/06/29 12:45:04;;;;;;;;;;;;;;;30.28;30.24;97973.31;7368879;19;19915;-69
2023/06/29 12:47:31;;;;;;;;;;;;;;;30.21;30.37;97975.59;7373596;19;19927;-68
2023/06/29 12:49:58;;;;;;;;;;;;;;;30.14;31.02;97989.59;7372981;19;19910;-71
2023/06/29 12:52:24;;;;;;;;;;;;;;;30.33;30.59;97984.16;7374130;19;19930;-70